createdAt,value
2023-05-19T00:00:14.805Z,102379.63
2023-05-19T00:03:05.085Z,102379.63
2023-05-19T00:05:34.527Z,102374.28
2023-05-19T00:08:04.351Z,102374.28
2023-05-19T00:10:33.870Z,102376.03
2023-05-19T00:13:04.734Z,102368.94
2023-05-19T00:15:33.973Z,102372.44
2023-05-19T00:18:03.442Z,102373.31
2023-05-19T00:20:32.999Z,102375.97
2023-05-19T00:23:02.431Z,102374.16
2023-05-19T00:25:31.299Z,102366.22
2023-05-19T00:28:00.732Z,102367.94
2023-05-19T00:30:31.263Z,102376.78
2023-05-19T00:33:00.810Z,102376.72
2023-05-19T00:35:29.737Z,102381.09
2023-05-19T00:38:00.475Z,102380.19
2023-05-19T00:40:32.093Z,102381.97
2023-05-19T00:43:02.275Z,102385.47
2023-05-19T00:45:32.524Z,102376.59
2023-05-19T00:48:02.084Z,102369.47
2023-05-19T00:50:31.323Z,102365.94
2023-05-19T00:53:00.848Z,102377.41
2023-05-19T00:55:32.302Z,102371.25
2023-05-19T00:58:01.881Z,102380.91
2023-05-19T01:00:32.900Z,102372.06
2023-05-19T01:03:11.237Z,102377.34
2023-05-19T01:05:44.800Z,102386.19
2023-05-19T01:08:14.293Z,102367.59
2023-05-19T01:10:44.991Z,102371.97
2023-05-19T01:13:14.359Z,102367.53
2023-05-19T01:15:54.472Z,102371.09
2023-05-19T01:18:27.333Z,102374.56
2023-05-19T01:21:08.022Z,102373.63
2023-05-19T01:23:43.503Z,102379.78
2023-05-19T01:26:18.722Z,102377.97
2023-05-19T01:29:09.295Z,102376.19
2023-05-19T01:31:40.129Z,102373.50
2023-05-19T01:34:10.838Z,102376.13
2023-05-19T01:36:44.809Z,102377.00
2023-05-19T01:39:15.381Z,102371.69
2023-05-19T01:41:45.588Z,102377.00
2023-05-19T01:44:16.093Z,102370.78
2023-05-19T01:46:48.488Z,102371.69
2023-05-19T01:49:17.843Z,102370.75
2023-05-19T01:51:47.027Z,102376.94
2023-05-19T01:54:16.262Z,102370.78
2023-05-19T01:56:50.940Z,102371.66
2023-05-19T01:59:25.249Z,102362.75
2023-05-19T02:01:58.458Z,102367.16
2023-05-19T02:04:39.241Z,102363.63
2023-05-19T02:07:14.116Z,102367.94
2023-05-19T02:10:02.766Z,102365.28
2023-05-19T02:12:33.736Z,102361.84
2023-05-19T02:15:06.150Z,102359.22
2023-05-19T02:17:41.495Z,102357.44
2023-05-19T02:20:12.490Z,102359.28
2023-05-19T02:22:41.566Z,102358.28
2023-05-19T02:25:11.417Z,102362.75
2023-05-19T02:27:40.501Z,102356.44
2023-05-19T02:33:58.993Z,102350.25
2023-05-19T02:36:28.299Z,102347.59
2023-05-19T02:38:57.413Z,102353.84
2023-05-19T02:41:26.278Z,102352.19
2023-05-19T02:43:55.744Z,102350.38
2023-05-19T02:46:24.826Z,102340.59
2023-05-19T02:48:55.180Z,102350.34
2023-05-19T02:51:25.740Z,102355.66
2023-05-19T02:53:54.916Z,102345.94
2023-05-19T02:56:24.083Z,102357.44
2023-05-19T02:58:53.241Z,102346.09
2023-05-19T03:01:23.254Z,102346.16
2023-05-19T03:03:52.736Z,102346.94
2023-05-19T03:06:23.493Z,102354.03
2023-05-19T03:08:54.108Z,102358.38
2023-05-19T03:11:23.674Z,102349.50
2023-05-19T03:13:52.881Z,102344.22
2023-05-19T03:16:22.138Z,102354.94
2023-05-19T03:18:51.372Z,102354.13
2023-05-19T03:21:20.312Z,102356.72
2023-05-19T03:23:49.619Z,102362.03
2023-05-19T03:26:19.896Z,102358.56
2023-05-19T03:28:49.165Z,102352.44
2023-05-19T03:31:18.208Z,102358.72
2023-05-19T03:33:47.484Z,102352.56
2023-05-19T03:36:16.471Z,102352.56
2023-05-19T03:38:45.777Z,102357.94
2023-05-19T03:41:14.606Z,102361.53
2023-05-19T03:43:45.345Z,102365.09
2023-05-19T03:46:14.237Z,102369.56
2023-05-19T03:48:49.162Z,102367.81
2023-05-19T03:51:36.771Z,102368.69
2023-05-19T03:54:26.267Z,102368.72
2023-05-19T03:56:55.125Z,102374.88
2023-05-19T03:59:25.955Z,102364.31
2023-05-19T04:01:54.934Z,102362.66
2023-05-19T04:04:24.094Z,102364.47
2023-05-19T04:06:53.131Z,102376.91
2023-05-19T04:09:24.024Z,102371.59
2023-05-19T04:11:53.002Z,102372.53
2023-05-19T04:14:22.125Z,102370.78
2023-05-19T04:16:52.387Z,102368.13
2023-05-19T04:19:21.614Z,102360.19
2023-05-19T04:21:50.628Z,102368.19
2023-05-19T04:24:19.851Z,102362.00
2023-05-19T04:26:49.356Z,102363.78
2023-05-19T04:29:20.603Z,102366.44
2023-05-19T04:31:49.497Z,102360.25
2023-05-19T04:34:20.653Z,102356.72
2023-05-19T04:36:51.651Z,102354.97
2023-05-19T04:39:24.136Z,102359.38
2023-05-19T04:41:54.184Z,102361.16
2023-05-19T04:44:23.293Z,102359.38
2023-05-19T04:46:54.647Z,102365.59
2023-05-19T04:49:26.982Z,102363.81
2023-05-19T04:51:56.682Z,102368.22
2023-05-19T04:54:30.649Z,102374.47
2023-05-19T04:56:59.699Z,102368.22
2023-05-19T04:59:31.452Z,102370.88
2023-05-19T05:02:00.489Z,102367.28
2023-05-19T05:04:33.815Z,102372.56
2023-05-19T05:07:03.007Z,102376.97
2023-05-19T05:09:32.210Z,102374.25
2023-05-19T05:12:03.434Z,102375.13
2023-05-19T05:14:33.113Z,102378.66
2023-05-19T05:17:02.475Z,102375.97
2023-05-19T05:19:33.581Z,102378.59
2023-05-19T05:22:02.907Z,102380.28
2023-05-19T05:24:32.961Z,102381.03
2023-05-19T05:27:04.576Z,102371.09
2023-05-19T05:29:35.247Z,102371.06
2023-05-19T05:32:06.505Z,102370.06
2023-05-19T05:34:38.198Z,102367.28
2023-05-19T05:37:07.245Z,102368.97
2023-05-19T05:39:37.241Z,102370.53
2023-05-19T05:42:09.082Z,102366.84
2023-05-19T05:44:38.523Z,102375.59
2023-05-19T05:47:08.955Z,102376.31
2023-05-19T05:49:40.457Z,102378.84
2023-05-19T05:52:12.127Z,102369.81
2023-05-19T05:54:47.480Z,102372.25
2023-05-19T05:57:19.315Z,102377.44
2023-05-19T05:59:48.827Z,102372.81
2023-05-19T06:02:18.048Z,102372.59
2023-05-19T06:04:48.935Z,102376.94
2023-05-19T06:07:18.214Z,102384.75
2023-05-19T06:09:47.610Z,102381.84
2023-05-19T06:12:18.106Z,102389.69
2023-05-19T06:14:50.686Z,102388.63
2023-05-19T06:17:34.561Z,102401.75
2023-05-19T06:20:06.552Z,102398.03
2023-05-19T06:22:36.210Z,102393.31
2023-05-19T06:25:09.029Z,102393.06
2023-05-19T06:27:38.359Z,102390.19
2023-05-19T06:30:08.896Z,102396.19
2023-05-19T06:32:47.263Z,102400.38
2023-05-19T06:35:18.145Z,102401.00
2023-05-19T06:37:47.108Z,102394.53
2023-05-19T06:40:16.721Z,102391.66
2023-05-19T06:42:46.492Z,102392.22
2023-05-19T06:45:24.617Z,102388.34
2023-05-19T06:47:54.618Z,102386.34
2023-05-19T06:50:25.464Z,102382.53
2023-05-19T06:52:54.468Z,102389.34
2023-05-19T06:55:23.777Z,102391.91
2023-05-19T06:57:52.727Z,102382.75
2023-05-19T07:00:23.958Z,102386.22
2023-05-19T07:02:55.089Z,102386.94
2023-05-19T07:05:25.777Z,102391.31
2023-05-19T07:07:58.960Z,102385.88
2023-05-19T07:10:30.978Z,102387.66
2023-05-19T07:13:00.233Z,102386.69
2023-05-19T07:15:33.259Z,102382.97
2023-05-19T07:18:02.245Z,102395.28
2023-05-19T07:20:33.853Z,102385.16
2023-05-19T07:23:03.774Z,102387.72
2023-05-19T07:25:33.559Z,102384.13
2023-05-19T07:28:02.501Z,102389.56
2023-05-19T07:30:31.771Z,102393.88
2023-05-19T07:33:00.997Z,102385.78
2023-05-19T07:35:30.277Z,102394.59
2023-05-19T07:38:01.228Z,102389.19
2023-05-19T07:40:31.087Z,102396.97
2023-05-19T07:43:00.351Z,102392.44
2023-05-19T07:45:29.786Z,102396.66
2023-05-19T07:47:58.989Z,102405.34
2023-05-19T07:50:28.109Z,102399.69
2023-05-19T07:52:57.161Z,102392.97
2023-05-19T07:55:27.908Z,102395.31
2023-05-19T07:57:57.344Z,102399.47
2023-05-19T08:00:26.478Z,102397.34
2023-05-19T08:02:56.992Z,102395.28
2023-05-19T08:05:29.825Z,102400.19
2023-05-19T08:07:58.863Z,102396.09
2023-05-19T08:10:30.028Z,102399.34
2023-05-19T08:12:59.096Z,102400.03
2023-05-19T08:15:28.252Z,102396.25
2023-05-19T08:17:57.240Z,102389.56
2023-05-19T08:20:26.380Z,102388.25
2023-05-19T08:22:55.394Z,102387.88
2023-05-19T08:25:24.531Z,102384.94
2023-05-19T08:27:54.907Z,102390.34
2023-05-19T08:30:24.466Z,102390.19
2023-05-19T08:32:53.290Z,102382.84
2023-05-19T08:35:22.530Z,102388.25
2023-05-19T08:37:51.521Z,102397.06
2023-05-19T08:40:21.525Z,102392.44
2023-05-19T08:42:50.471Z,102395.19
2023-05-19T08:45:20.998Z,102390.41
2023-05-19T08:47:50.227Z,102394.63
2023-05-19T08:50:24.952Z,102390.88
2023-05-19T08:52:55.800Z,102386.31
2023-05-19T08:55:31.271Z,102396.19
2023-05-19T08:58:00.854Z,102379.84
2023-05-19T09:00:31.837Z,102387.03
2023-05-19T09:03:17.717Z,102384.03
2023-05-19T09:05:51.911Z,102388.19
2023-05-19T09:08:21.145Z,102393.38
2023-05-19T09:10:50.338Z,102394.25
2023-05-19T09:13:19.619Z,102391.31
2023-05-19T09:15:51.520Z,102386.59
2023-05-19T09:18:20.451Z,102386.34
2023-05-19T09:20:49.575Z,102383.41
2023-05-19T09:23:19.174Z,102384.19
2023-05-19T09:25:49.384Z,102384.69
2023-05-19T09:28:24.213Z,102384.56
2023-05-19T09:31:01.729Z,102385.50
2023-05-19T09:33:31.187Z,102378.53
2023-05-19T09:36:00.667Z,102383.63
2023-05-19T09:38:30.815Z,102382.53
2023-05-19T09:41:01.648Z,102378.91
2023-05-19T09:43:31.839Z,102381.06
2023-05-19T09:46:04.826Z,102383.81
2023-05-19T09:48:34.653Z,102376.66
2023-05-19T09:51:05.256Z,102373.97
2023-05-19T09:53:35.538Z,102374.03
2023-05-19T09:56:04.935Z,102378.09
2023-05-19T09:58:36.544Z,102376.28
2023-05-19T10:01:07.669Z,102371.00
2023-05-19T10:03:36.939Z,102372.81
2023-05-19T10:06:07.468Z,102374.69
2023-05-19T10:08:38.236Z,102371.34
2023-05-19T10:11:09.737Z,102372.13
2023-05-19T10:13:40.069Z,102376.97
2023-05-19T10:16:11.884Z,102369.69
2023-05-19T10:18:41.138Z,102366.97
2023-05-19T10:21:10.649Z,102367.19
2023-05-19T10:23:39.625Z,102369.72
2023-05-19T10:26:09.700Z,102371.44
2023-05-19T10:28:40.655Z,102370.53
2023-05-19T10:31:12.679Z,102367.91
2023-05-19T10:33:48.703Z,102358.25
2023-05-19T10:36:26.723Z,102366.59
2023-05-19T10:39:00.080Z,102365.81
2023-05-19T10:41:33.126Z,102367.81
2023-05-19T10:44:09.249Z,102364.72
2023-05-19T10:46:43.270Z,102369.59
2023-05-19T10:49:20.858Z,102370.69
2023-05-19T10:51:50.305Z,102363.56
2023-05-19T10:54:39.259Z,102366.50
2023-05-19T10:57:09.955Z,102367.06
2023-05-19T10:59:39.502Z,102367.88
2023-05-19T11:02:10.792Z,102370.91
2023-05-19T11:04:40.625Z,102372.06
2023-05-19T11:07:10.532Z,102365.03
2023-05-19T11:09:41.750Z,102367.13
2023-05-19T11:12:11.899Z,102361.84
2023-05-19T11:14:41.518Z,102364.97
2023-05-19T11:17:15.092Z,102366.81
2023-05-19T11:19:53.811Z,102369.91
2023-05-19T11:22:24.812Z,102366.13
2023-05-19T11:24:55.929Z,102370.63
2023-05-19T11:27:26.515Z,102377.94
2023-05-19T11:29:56.164Z,102378.78
2023-05-19T11:32:30.790Z,102379.41
2023-05-19T11:35:00.239Z,102377.91
2023-05-19T11:37:29.857Z,102383.06
2023-05-19T11:39:59.119Z,102382.94
2023-05-19T11:42:28.232Z,102386.38
2023-05-19T11:44:57.249Z,102392.66
2023-05-19T11:47:27.035Z,102388.69
2023-05-19T11:49:57.677Z,102392.00
2023-05-19T11:52:28.405Z,102395.59
2023-05-19T11:55:01.080Z,102398.28
2023-05-19T11:57:30.789Z,102400.72
2023-05-19T12:00:03.653Z,102408.47
2023-05-19T12:02:34.618Z,102417.16
2023-05-19T12:05:05.146Z,102413.22
2023-05-19T12:07:34.474Z,102415.66
2023-05-19T12:10:06.602Z,102429.66
2023-05-19T12:12:36.122Z,102428.53
2023-05-19T12:15:05.647Z,102425.56
2023-05-19T12:17:34.839Z,102421.78
2023-05-19T12:20:06.207Z,102430.63
2023-05-19T12:22:35.674Z,102430.38
2023-05-19T12:25:05.254Z,102433.69
2023-05-19T12:27:36.817Z,102431.81
2023-05-19T12:30:06.113Z,102433.56
2023-05-19T12:32:36.561Z,102436.84
2023-05-19T12:35:07.527Z,102430.50
2023-05-19T12:37:37.855Z,102441.31
2023-05-19T12:40:07.513Z,102440.44
2023-05-19T12:42:37.992Z,102438.28
2023-05-19T12:45:07.452Z,102434.59
2023-05-19T12:47:36.956Z,102436.13
2023-05-19T12:50:09.283Z,102434.91
2023-05-19T12:52:42.940Z,102439.28
2023-05-19T12:55:12.400Z,102434.38
2023-05-19T12:57:42.623Z,102426.97
2023-05-19T13:00:15.024Z,102428.66
2023-05-19T13:02:57.622Z,102425.75
2023-05-19T13:05:28.394Z,102428.34
2023-05-19T13:07:58.441Z,102416.63
2023-05-19T13:10:28.187Z,102425.00
2023-05-19T13:12:57.995Z,102424.13
2023-05-19T13:15:27.558Z,102418.66
2023-05-19T13:17:56.705Z,102425.13
2023-05-19T13:20:28.207Z,102420.56
2023-05-19T13:22:59.500Z,102425.81
2023-05-19T13:25:28.554Z,102423.13
2023-05-19T13:27:59.485Z,102417.78
2023-05-19T13:30:28.559Z,102414.28
2023-05-19T13:32:57.768Z,102407.03
2023-05-19T13:35:26.758Z,102412.47
2023-05-19T13:37:55.921Z,102407.03
2023-05-19T13:40:28.312Z,102401.63
2023-05-19T13:42:57.703Z,102399.75
2023-05-19T13:45:26.537Z,102403.38
2023-05-19T13:47:56.015Z,102403.38
2023-05-19T13:50:24.937Z,102400.75
2023-05-19T13:52:54.336Z,102404.38
2023-05-19T13:55:23.675Z,102395.53
2023-05-19T13:57:54.558Z,102400.38
2023-05-19T14:00:24.042Z,102391.00
2023-05-19T14:02:53.919Z,102397.31
2023-05-19T14:05:23.052Z,102393.81
2023-05-19T14:07:52.477Z,102393.19
2023-05-19T14:10:23.125Z,102391.72
2023-05-19T14:15:28.999Z,102392.47
2023-05-19T14:17:59.206Z,102398.13
2023-05-19T14:20:29.426Z,102400.84
2023-05-19T14:22:58.878Z,102400.97
2023-05-19T14:25:27.748Z,102400.22
2023-05-19T14:27:56.957Z,102397.53
2023-05-19T14:30:25.786Z,102397.63
2023-05-19T14:32:56.601Z,102402.22
2023-05-19T14:35:26.186Z,102394.31
2023-05-19T14:37:55.452Z,102391.72
2023-05-19T14:40:24.403Z,102398.09
2023-05-19T14:42:53.879Z,102397.25
2023-05-19T14:45:22.751Z,102398.19
2023-05-19T14:47:52.755Z,102392.94
2023-05-19T14:50:23.207Z,102394.19
2023-05-19T14:52:52.419Z,102381.56
2023-05-19T14:55:21.391Z,102376.25
2023-05-19T14:57:50.969Z,102383.50
2023-05-19T15:00:20.158Z,102379.50
2023-05-19T15:02:49.663Z,102379.56
2023-05-19T15:05:19.233Z,102379.22
2023-05-19T15:07:50.282Z,102387.25
2023-05-19T15:10:20.462Z,102379.22
2023-05-19T15:12:50.124Z,102386.00
2023-05-19T15:15:19.718Z,102376.25
2023-05-19T15:17:48.907Z,102377.25
2023-05-19T15:20:17.992Z,102372.81
2023-05-19T15:22:47.196Z,102372.81
2023-05-19T15:25:17.748Z,102375.59
2023-05-19T15:27:46.980Z,102372.00
2023-05-19T15:30:15.917Z,102366.75
2023-05-19T15:32:45.246Z,102367.06
2023-05-19T15:35:14.201Z,102360.28
2023-05-19T15:37:43.474Z,102372.59
2023-05-19T15:40:12.659Z,102368.16
2023-05-19T15:42:44.820Z,102372.81
2023-05-19T15:45:13.836Z,102361.94
2023-05-19T15:47:43.008Z,102370.06
2023-05-19T15:50:12.392Z,102371.28
2023-05-19T15:52:41.930Z,102373.16
2023-05-19T15:55:11.106Z,102365.34
2023-05-19T15:57:40.717Z,102369.72
2023-05-19T16:00:12.218Z,102368.78
2023-05-19T16:02:41.821Z,102372.53
2023-05-19T16:05:10.913Z,102367.22
2023-05-19T16:07:42.109Z,102361.13
2023-05-19T16:10:11.411Z,102362.31
2023-05-19T16:12:40.762Z,102356.94
2023-05-19T16:15:11.560Z,102355.28
2023-05-19T16:17:41.410Z,102360.88
2023-05-19T16:20:11.102Z,102364.81
2023-05-19T16:22:40.370Z,102355.06
2023-05-19T16:25:09.635Z,102359.66
2023-05-19T16:27:38.938Z,102355.34
2023-05-19T16:30:09.026Z,102351.00
2023-05-19T16:32:42.662Z,102353.75
2023-05-19T16:35:11.792Z,102358.09
2023-05-19T16:37:40.945Z,102365.38
2023-05-19T16:40:10.328Z,102362.09
2023-05-19T16:42:39.442Z,102357.75
2023-05-19T16:45:09.114Z,102356.94
2023-05-19T16:47:39.678Z,102361.66
2023-05-19T16:50:09.097Z,102358.28
2023-05-19T16:52:38.211Z,102354.00
2023-05-19T16:55:07.348Z,102356.75
2023-05-19T16:57:36.620Z,102349.69
2023-05-19T17:00:06.230Z,102357.03
2023-05-19T17:02:35.452Z,102353.66
2023-05-19T17:05:06.125Z,102352.81
2023-05-19T17:07:35.456Z,102361.03
2023-05-19T17:10:04.366Z,102365.47
2023-05-19T17:12:33.693Z,102361.03
2023-05-19T17:15:02.503Z,102362.91
2023-05-19T17:17:31.750Z,102354.94
2023-05-19T17:20:00.823Z,102354.97
2023-05-19T17:22:31.410Z,102355.16
2023-05-19T17:25:00.373Z,102359.78
2023-05-19T17:27:29.513Z,102353.41
2023-05-19T17:29:58.439Z,102353.53
2023-05-19T17:32:29.131Z,102351.94
2023-05-19T17:34:59.297Z,102351.03
2023-05-19T17:37:28.603Z,102355.56
2023-05-19T17:39:58.873Z,102360.09
2023-05-19T17:42:29.153Z,102357.47
2023-05-19T17:44:58.575Z,102357.47
2023-05-19T17:47:27.744Z,102350.38
2023-05-19T17:49:56.604Z,102346.84
2023-05-19T17:52:26.562Z,102351.38
2023-05-19T17:54:55.724Z,102345.22
2023-05-19T17:57:26.998Z,102347.91
2023-05-19T17:59:56.193Z,102347.06
2023-05-19T18:02:26.357Z,102344.50
2023-05-19T18:04:55.737Z,102340.03
2023-05-19T18:07:26.223Z,102346.41
2023-05-19T18:09:56.481Z,102336.66
2023-05-19T18:12:27.210Z,102350.06
2023-05-19T18:14:56.503Z,102338.47
2023-05-19T18:17:25.705Z,102346.63
2023-05-19T18:19:55.657Z,102341.31
2023-05-19T18:22:24.849Z,102340.47
2023-05-19T18:24:53.863Z,102341.50
2023-05-19T18:27:22.964Z,102338.88
2023-05-19T18:29:53.290Z,102337.19
2023-05-19T18:32:22.689Z,102339.91
2023-05-19T18:34:52.125Z,102342.72
2023-05-19T18:37:21.395Z,102347.41
2023-05-19T18:39:50.490Z,102345.63
2023-05-19T18:42:19.884Z,102356.38
2023-05-19T18:44:50.581Z,102354.63
2023-05-19T18:47:22.851Z,102363.59
2023-05-19T18:49:51.906Z,102356.50
2023-05-19T18:52:21.784Z,102352.16
2023-05-19T18:54:50.866Z,102352.16
2023-05-19T18:57:20.548Z,102345.03
2023-05-19T18:59:49.482Z,102343.31
2023-05-19T19:02:19.232Z,102354.06
2023-05-19T19:04:49.673Z,102352.34
2023-05-19T19:07:19.507Z,102350.75
2023-05-19T19:09:48.512Z,102354.34
2023-05-19T19:12:19.078Z,102349.91
2023-05-19T19:14:49.276Z,102361.63
2023-05-19T19:17:18.443Z,102352.84
2023-05-19T19:19:47.459Z,102355.53
2023-05-19T19:22:18.336Z,102354.63
2023-05-19T19:24:47.517Z,102354.78
2023-05-19T19:27:19.975Z,102347.63
2023-05-19T19:29:48.883Z,102349.47
2023-05-19T19:32:18.356Z,102359.34
2023-05-19T19:34:48.311Z,102361.16
2023-05-19T19:37:19.025Z,102355.91
2023-05-19T19:39:48.013Z,102348.75
2023-05-19T19:42:17.205Z,102350.56
2023-05-19T19:44:49.250Z,102354.19
2023-05-19T19:47:18.552Z,102355.16
2023-05-19T19:49:49.150Z,102346.28
2023-05-19T19:52:21.262Z,102351.66
2023-05-19T19:54:50.316Z,102349.00
2023-05-19T19:57:19.457Z,102346.50
2023-05-19T19:59:55.034Z,102359.03
2023-05-19T20:02:24.795Z,102358.94
2023-05-19T20:04:55.043Z,102358.97
2023-05-19T20:07:27.284Z,102359.13
2023-05-19T20:09:58.283Z,102360.81
2023-05-19T20:12:30.104Z,102353.66
2023-05-19T20:14:59.477Z,102360.16
2023-05-19T20:17:28.740Z,102355.72
2023-05-19T20:19:59.867Z,102358.41
2023-05-19T20:22:30.802Z,102358.47
2023-05-19T20:24:59.823Z,102362.00
2023-05-19T20:27:28.944Z,102362.06
2023-05-19T20:30:00.332Z,102370.97
2023-05-19T20:32:29.754Z,102364.75
2023-05-19T20:34:59.894Z,102370.13
2023-05-19T20:37:31.485Z,102363.91
2023-05-19T20:40:00.478Z,102373.78
2023-05-19T20:42:29.608Z,102370.16
2023-05-19T20:44:58.684Z,102374.72
2023-05-19T20:47:30.271Z,102379.19
2023-05-19T20:50:00.870Z,102382.72
2023-05-19T20:52:33.086Z,102380.00
2023-05-19T20:55:04.785Z,102377.31
2023-05-19T20:57:34.208Z,102378.16
2023-05-19T21:00:04.409Z,102382.69
2023-05-19T21:02:34.689Z,102375.56
2023-05-19T21:05:04.433Z,102371.13
2023-05-19T21:07:36.689Z,102370.25
2023-05-19T21:10:06.011Z,102383.66
2023-05-19T21:12:35.760Z,102375.66
2023-05-19T21:15:06.660Z,102383.72
2023-05-19T21:17:35.896Z,102373.88
2023-05-19T21:20:05.264Z,102374.78
2023-05-19T21:22:36.832Z,102374.84
2023-05-19T21:25:06.293Z,102373.97
2023-05-19T21:27:39.574Z,102366.81
2023-05-19T21:30:09.858Z,102373.97
2023-05-19T21:32:39.137Z,102372.97
2023-05-19T21:35:08.269Z,102372.19
2023-05-19T21:37:38.878Z,102371.41
2023-05-19T21:40:08.493Z,102383.03
2023-05-19T21:42:37.632Z,102381.28
2023-05-19T21:45:06.984Z,102384.81
2023-05-19T21:47:36.483Z,102369.63
2023-05-19T21:50:05.559Z,102368.78
2023-05-19T21:52:36.143Z,102371.50
2023-05-19T21:55:07.243Z,102375.06
2023-05-19T21:57:38.399Z,102371.53
2023-05-19T22:00:08.496Z,102376.00
2023-05-19T22:02:41.049Z,102375.16
2023-05-19T22:05:13.207Z,102384.09
2023-05-19T22:07:42.780Z,102377.00
2023-05-19T22:10:14.815Z,102384.13
2023-05-19T22:12:46.893Z,102388.66
2023-05-19T22:15:18.641Z,102385.13
2023-05-19T22:17:47.919Z,102382.47
2023-05-19T22:20:16.801Z,102386.06
2023-05-19T22:22:47.440Z,102378.91
2023-05-19T22:25:17.781Z,102371.78
2023-05-19T22:27:47.116Z,102376.34
2023-05-19T22:30:16.462Z,102376.34
2023-05-19T22:32:45.743Z,102377.25
2023-05-19T22:35:14.590Z,102365.66
2023-05-19T22:37:43.870Z,102366.59
2023-05-19T22:40:13.051Z,102369.34
2023-05-19T22:42:43.546Z,102366.75
2023-05-19T22:45:12.624Z,102359.53
2023-05-19T22:47:41.882Z,102356.91
2023-05-19T22:50:12.258Z,102344.44
2023-05-19T22:52:41.551Z,102346.25
2023-05-19T22:55:11.056Z,102350.72
2023-05-19T22:57:40.343Z,102338.22
2023-05-19T23:00:14.090Z,102344.56
2023-05-19T23:02:43.455Z,102338.44
2023-05-19T23:05:12.600Z,102337.56
2023-05-19T23:07:41.700Z,102336.72
2023-05-19T23:10:11.040Z,102343.91
2023-05-19T23:12:40.810Z,102347.47
2023-05-19T23:15:12.193Z,102347.47
2023-05-19T23:17:41.474Z,102365.22
2023-05-19T23:20:10.751Z,102366.16
2023-05-19T23:22:39.940Z,102365.22
2023-05-19T23:25:09.184Z,102367.91
2023-05-19T23:27:38.499Z,102363.47
2023-05-19T23:30:07.906Z,102374.22
2023-05-19T23:32:38.606Z,102370.66
2023-05-19T23:35:11.734Z,102370.63
2023-05-19T23:37:41.019Z,102373.34
2023-05-19T23:40:10.364Z,102376.88
2023-05-19T23:42:39.529Z,102374.22
2023-05-19T23:45:09.012Z,102373.38
2023-05-19T23:47:39.765Z,102369.78
2023-05-19T23:50:08.958Z,102372.47
2023-05-19T23:52:38.068Z,102370.84
2023-05-19T23:55:07.581Z,102375.28
2023-05-19T23:57:36.783Z,102369.03
